メインページ
METAR-TAF:

METAR-TAF

空港 :

マイアミ, フロリダ州, アメリカ合衆国

マイアミ国際空港

緯度: 25-47-26N, 経度: 080-18-59W, 海抜: 3m

現時点の気象観測

当レポートは18分前の10:53(UTC)に作成
無風
気温 27°C
湿度 89%
気圧 1015 hPa
視程: 16.1km
高度3500ftの雲はほとんどない
高度22000ftの雲はほとんどない

METAR: KMIA 201053Z 00000KT 10SM FEW035 FEW220 27/25 A2996 RMK AO2 SLP146 T02670250

時間: 07:11 (11:11 UTC)

予報

当レポートは2時間17分前の08:54(UTC)に作成
予報は20日の 09時(UTC)から 21日の 06時(UTC)まで有効
変向風 3kt
視程: 10km
高度3000ftの雲はほとんどない
高度25000ftの雲は散在している
20日の 1400時(UTC)から
南東の風 10kt
視程: 10km
高度3000ftの雲は散在している
高度6000ftの雲は散在している
21日の 0000時(UTC)から
変向風 2kt
視程: 10km
高度2500ftの雲はほとんどない
高度25000ftの雲は散在している

TAF: KMIA 200854Z 2009/2106 VRB03KT P6SM FEW030 SCT250 FM201400 13010KT P6SM SCT030 SCT060 FM210000 VRB02KT P6SM FEW025 SCT250

4,000以上の空港の気象観測と天気予報(METAR報とTAF報)

利用可能な観測所は地図上に黄色い丸と赤い丸で示す。

丸の上にカーソルを重ねると観測所名を参照できる。

次にクリックすると気象観測と天気予報を参照できる。

マップの切り替え:黒色「×」印の緑ボタンをクリックして拡大、「-」印の緑ボタンをクリックして縮小、緑色の三角印をクリックして隣りの地図に切り替え


METAR-TAF: